createdAt,value
2022-10-15T00:01:27.318Z,12.80
2022-10-15T00:03:54.811Z,12.80
2022-10-15T00:06:22.325Z,12.80
2022-10-15T00:08:49.837Z,12.80
2022-10-15T00:11:22.842Z,12.80
2022-10-15T00:13:50.438Z,12.70
2022-10-15T00:16:20.945Z,12.70
2022-10-15T00:18:48.882Z,12.70
2022-10-15T00:21:18.149Z,12.70
2022-10-15T00:23:46.670Z,12.70
2022-10-15T00:26:17.511Z,12.70
2022-10-15T00:28:46.143Z,12.70
2022-10-15T00:31:15.733Z,12.60
2022-10-15T00:33:44.157Z,12.60
2022-10-15T00:36:15.347Z,12.60
2022-10-15T00:38:43.197Z,12.60
2022-10-15T00:41:39.955Z,12.50
2022-10-15T00:44:22.594Z,12.50
2022-10-15T00:46:53.858Z,12.50
2022-10-15T00:49:39.786Z,12.50
2022-10-15T00:52:19.577Z,12.50
2022-10-15T00:54:57.920Z,12.50
2022-10-15T00:57:26.826Z,12.40
2022-10-15T00:59:59.964Z,12.40
2022-10-15T01:02:27.569Z,12.40
2022-10-15T01:04:56.343Z,12.40
2022-10-15T01:07:23.846Z,12.40
2022-10-15T01:09:51.469Z,12.40
2022-10-15T01:12:30.979Z,12.30
2022-10-15T01:15:05.762Z,12.30
2022-10-15T01:17:46.351Z,12.30
2022-10-15T01:20:32.646Z,12.30
2022-10-15T01:23:32.044Z,12.20
2022-10-15T01:26:48.014Z,12.20
2022-10-15T01:29:28.198Z,12.10
2022-10-15T01:32:14.524Z,12.10
2022-10-15T01:35:11.746Z,12.10
2022-10-15T01:38:00.083Z,12.10
2022-10-15T01:40:34.437Z,12.00
2022-10-15T01:43:13.150Z,12.00
2022-10-15T01:46:05.820Z,12.00
2022-10-15T01:48:40.128Z,11.90
2022-10-15T01:51:10.391Z,12.00
2022-10-15T01:53:39.915Z,11.90
2022-10-15T01:56:12.745Z,11.90
2022-10-15T01:58:44.299Z,11.90
2022-10-15T02:01:12.263Z,11.80
2022-10-15T02:03:46.786Z,11.80
2022-10-15T02:06:22.114Z,11.80
2022-10-15T02:09:12.884Z,11.80
2022-10-15T02:12:09.556Z,11.80
2022-10-15T02:14:56.809Z,11.80
2022-10-15T02:17:43.466Z,11.70
2022-10-15T02:20:24.831Z,11.70
2022-10-15T02:23:00.345Z,11.70
2022-10-15T02:25:28.842Z,11.60
2022-10-15T02:27:58.501Z,11.60
2022-10-15T02:30:30.098Z,11.60
2022-10-15T02:32:59.300Z,11.60
2022-10-15T02:35:27.794Z,11.60
2022-10-15T02:37:58.332Z,11.60
2022-10-15T02:40:29.548Z,11.50
2022-10-15T02:42:57.578Z,11.50
2022-10-15T02:45:25.022Z,11.50
2022-10-15T02:47:52.580Z,11.50
2022-10-15T02:50:20.109Z,11.50
2022-10-15T02:52:47.590Z,11.50
2022-10-15T02:55:15.183Z,11.40
2022-10-15T02:57:42.590Z,11.40
2022-10-15T03:00:11.287Z,11.40
2022-10-15T03:02:40.405Z,11.40
2022-10-15T03:05:08.397Z,11.40
2022-10-15T03:07:36.042Z,11.40
2022-10-15T03:10:05.180Z,11.40
2022-10-15T03:12:33.406Z,11.40
2022-10-15T03:15:00.907Z,11.40
2022-10-15T03:17:29.134Z,11.30
2022-10-15T03:19:56.527Z,11.20
2022-10-15T03:22:23.910Z,11.30
2022-10-15T03:24:53.763Z,11.30
2022-10-15T03:27:26.556Z,11.30
2022-10-15T03:29:54.533Z,11.20
2022-10-15T03:32:24.383Z,11.20
2022-10-15T03:34:52.599Z,11.20
2022-10-15T03:37:21.544Z,11.20
2022-10-15T03:39:49.123Z,11.20
2022-10-15T03:42:19.053Z,11.20
2022-10-15T03:44:46.625Z,11.20
2022-10-15T03:47:17.957Z,11.20
2022-10-15T03:49:47.707Z,11.10
2022-10-15T03:52:16.091Z,11.10
2022-10-15T03:54:44.727Z,11.10
2022-10-15T03:57:14.267Z,11.10
2022-10-15T03:59:46.538Z,11.10
2022-10-15T04:02:15.979Z,11.10
2022-10-15T04:04:43.405Z,11.10
2022-10-15T04:07:10.887Z,11.10
2022-10-15T04:09:38.888Z,11.10
2022-10-15T04:12:41.476Z,11.10
2022-10-15T04:15:12.171Z,11.10
2022-10-15T04:17:47.960Z,11.10
2022-10-15T04:20:15.539Z,11.10
2022-10-15T04:22:45.315Z,11.10
2022-10-15T04:25:14.367Z,11.10
2022-10-15T04:27:41.742Z,11.10
2022-10-15T04:30:13.105Z,11.10
2022-10-15T04:32:53.119Z,11.00
2022-10-15T04:35:21.838Z,11.00
2022-10-15T04:38:00.082Z,11.00
2022-10-15T04:40:33.420Z,11.00
2022-10-15T04:43:00.857Z,11.00
2022-10-15T04:45:28.360Z,11.00
2022-10-15T04:47:57.359Z,11.10
2022-10-15T04:50:25.812Z,11.00
2022-10-15T04:53:19.488Z,11.00
2022-10-15T04:55:51.398Z,11.00
2022-10-15T04:58:18.838Z,10.90
2022-10-15T05:00:46.512Z,10.90
2022-10-15T05:03:44.934Z,10.90
2022-10-15T05:06:20.803Z,10.90
2022-10-15T05:08:50.288Z,10.90
2022-10-15T05:11:25.961Z,10.90
2022-10-15T05:13:58.297Z,10.90
2022-10-15T05:16:29.244Z,10.80
2022-10-15T05:19:06.040Z,10.90
2022-10-15T05:21:35.245Z,10.90
2022-10-15T05:24:06.776Z,10.80
2022-10-15T05:26:50.320Z,10.90
2022-10-15T05:29:18.249Z,10.90
2022-10-15T05:31:46.037Z,10.90
2022-10-15T05:34:18.365Z,10.90
2022-10-15T05:36:52.004Z,10.90
2022-10-15T05:39:19.498Z,10.90
2022-10-15T05:41:47.003Z,10.80
2022-10-15T05:44:15.098Z,10.90
2022-10-15T05:46:42.720Z,10.90
2022-10-15T05:49:14.606Z,10.90
2022-10-15T05:51:51.709Z,10.90
2022-10-15T05:54:34.476Z,10.90
2022-10-15T05:57:01.891Z,10.90
2022-10-15T05:59:29.306Z,10.90
2022-10-15T06:01:56.826Z,10.90
2022-10-15T06:04:24.327Z,10.90
2022-10-15T06:06:51.682Z,10.90
2022-10-15T06:09:19.044Z,10.90
2022-10-15T06:11:46.909Z,10.90
2022-10-15T06:14:19.045Z,10.90
2022-10-15T06:16:50.591Z,10.90
2022-10-15T06:19:18.112Z,10.80
2022-10-15T06:21:45.509Z,10.90
2022-10-15T06:24:12.872Z,10.80
2022-10-15T06:26:40.329Z,10.80
2022-10-15T06:29:07.735Z,10.80
2022-10-15T06:31:35.141Z,10.80
2022-10-15T06:34:02.515Z,10.80
2022-10-15T06:36:29.862Z,10.80
2022-10-15T06:38:57.272Z,10.80
2022-10-15T06:41:24.722Z,10.80
2022-10-15T06:46:24.583Z,10.80
2022-10-15T06:48:52.604Z,10.80
2022-10-15T06:51:20.031Z,10.80
2022-10-15T06:53:50.266Z,10.80
2022-10-15T06:56:17.804Z,10.80
2022-10-15T06:58:45.593Z,10.80
2022-10-15T07:01:13.047Z,10.80
2022-10-15T07:03:40.876Z,10.80
2022-10-15T07:06:09.654Z,10.80
2022-10-15T07:08:37.304Z,10.80
2022-10-15T07:11:06.937Z,10.80
2022-10-15T07:13:34.319Z,10.80
2022-10-15T07:16:11.898Z,10.80
2022-10-15T07:18:39.991Z,10.90
2022-10-15T07:23:41.830Z,11.00
2022-10-15T07:26:09.227Z,11.10
2022-10-15T07:28:36.737Z,11.20
2022-10-15T07:31:06.346Z,11.40
2022-10-15T07:33:34.620Z,11.50
2022-10-15T07:36:07.732Z,11.60
2022-10-15T07:38:36.011Z,11.80
2022-10-15T07:41:04.638Z,11.90
2022-10-15T07:43:34.206Z,12.10
2022-10-15T07:46:02.646Z,12.20
2022-10-15T07:48:30.933Z,12.30
2022-10-15T07:51:04.647Z,12.40
2022-10-15T07:53:33.170Z,12.60
2022-10-15T07:56:08.344Z,12.70
2022-10-15T07:58:37.997Z,12.90
2022-10-15T08:01:10.425Z,13.00
2022-10-15T08:03:38.717Z,13.10
2022-10-15T08:06:07.887Z,13.30
2022-10-15T08:08:36.402Z,13.40
2022-10-15T08:11:08.734Z,13.50
2022-10-15T08:13:36.678Z,13.60
2022-10-15T08:16:06.442Z,13.70
2022-10-15T08:18:33.876Z,13.80
2022-10-15T08:21:01.977Z,13.90
2022-10-15T08:23:29.558Z,14.00
2022-10-15T08:26:00.781Z,14.10
2022-10-15T08:28:29.532Z,14.10
2022-10-15T08:31:04.581Z,14.20
2022-10-15T08:33:37.885Z,14.30
2022-10-15T08:36:06.396Z,14.30
2022-10-15T08:38:35.103Z,14.40
2022-10-15T08:41:05.460Z,14.50
2022-10-15T08:43:40.080Z,14.50
2022-10-15T08:46:33.449Z,14.60
2022-10-15T08:49:01.890Z,14.70
2022-10-15T08:51:38.478Z,14.70
2022-10-15T08:54:09.929Z,14.80
2022-10-15T08:56:45.590Z,14.90
2022-10-15T08:59:57.423Z,15.00
2022-10-15T09:02:37.400Z,15.10
2022-10-15T09:05:27.230Z,15.10
2022-10-15T09:08:01.725Z,15.20
2022-10-15T09:10:38.541Z,15.30
2022-10-15T09:13:26.235Z,15.40
2022-10-15T09:16:16.399Z,15.50
2022-10-15T09:18:48.171Z,15.60
2022-10-15T09:21:16.044Z,15.60
2022-10-15T09:23:44.363Z,15.70
2022-10-15T09:26:42.523Z,15.80
2022-10-15T09:29:50.954Z,15.90
2022-10-15T09:32:27.430Z,16.00
2022-10-15T09:35:07.104Z,16.00
2022-10-15T09:37:46.292Z,16.10
2022-10-15T09:40:28.485Z,16.20
2022-10-15T09:43:01.401Z,16.30
2022-10-15T09:45:28.917Z,16.40
2022-10-15T09:48:01.635Z,16.40
2022-10-15T09:50:38.691Z,16.50
2022-10-15T09:53:12.806Z,16.60
2022-10-15T09:55:51.997Z,16.70
2022-10-15T09:58:33.682Z,16.70
2022-10-15T10:01:03.623Z,16.80
2022-10-15T10:03:36.928Z,16.90
2022-10-15T10:06:14.795Z,17.00
2022-10-15T10:08:58.089Z,17.10
2022-10-15T10:11:27.492Z,17.10
2022-10-15T10:13:58.837Z,17.30
2022-10-15T10:16:27.778Z,17.40
2022-10-15T10:19:06.353Z,17.40
2022-10-15T10:21:37.202Z,17.50
2022-10-15T10:24:28.583Z,17.60
2022-10-15T10:26:57.285Z,17.60
2022-10-15T10:29:33.866Z,17.70
2022-10-15T10:32:21.748Z,17.70
2022-10-15T10:34:52.691Z,17.80
2022-10-15T10:37:21.173Z,17.90
2022-10-15T10:40:00.576Z,17.90
2022-10-15T10:42:33.643Z,18.00
2022-10-15T10:45:22.782Z,18.10
2022-10-15T10:47:50.224Z,18.10
2022-10-15T10:50:34.752Z,18.20
2022-10-15T10:53:25.331Z,18.20
2022-10-15T10:55:55.398Z,18.20
2022-10-15T10:58:34.477Z,18.30
2022-10-15T11:01:02.194Z,18.30
2022-10-15T11:03:36.915Z,18.30
2022-10-15T11:06:23.138Z,18.40
2022-10-15T11:09:21.529Z,18.50
2022-10-15T11:12:07.289Z,18.60
2022-10-15T11:15:03.858Z,18.80
2022-10-15T11:18:05.169Z,18.90
2022-10-15T11:21:00.571Z,19.20
2022-10-15T11:23:46.725Z,19.40
2022-10-15T11:26:58.835Z,19.60
2022-10-15T11:29:51.462Z,19.70
2022-10-15T11:33:07.037Z,19.90
2022-10-15T11:36:00.042Z,20.00
2022-10-15T11:38:50.533Z,20.00
2022-10-15T11:41:39.597Z,20.00
2022-10-15T11:44:29.690Z,19.90
2022-10-15T11:47:13.875Z,19.90
2022-10-15T11:50:12.454Z,19.70
2022-10-15T11:53:05.687Z,19.70
2022-10-15T11:56:10.515Z,19.60
2022-10-15T11:58:55.784Z,19.50
2022-10-15T12:01:31.354Z,19.40
2022-10-15T12:04:14.605Z,19.30
2022-10-15T12:06:49.846Z,19.20
2022-10-15T12:09:26.280Z,19.10
2022-10-15T12:12:04.364Z,19.00
2022-10-15T12:15:05.098Z,19.00
2022-10-15T12:18:03.779Z,18.90
2022-10-15T12:20:31.609Z,18.80
2022-10-15T12:23:01.668Z,18.70
2022-10-15T12:25:35.131Z,18.70
2022-10-15T12:28:08.560Z,18.70
2022-10-15T12:30:39.539Z,18.70
2022-10-15T12:33:26.279Z,18.80
2022-10-15T12:36:02.894Z,18.80
2022-10-15T12:38:40.066Z,18.90
2022-10-15T12:41:12.739Z,19.00
2022-10-15T12:44:05.331Z,19.10
2022-10-15T12:46:39.255Z,19.10
2022-10-15T12:49:32.102Z,19.20
2022-10-15T12:52:22.974Z,19.20
2022-10-15T12:55:13.826Z,19.30
2022-10-15T12:57:44.498Z,19.30
2022-10-15T13:00:31.213Z,19.30
2022-10-15T13:03:17.171Z,19.30
2022-10-15T13:05:47.776Z,19.30
2022-10-15T13:08:24.223Z,19.40
2022-10-15T13:11:00.555Z,19.40
2022-10-15T13:13:34.001Z,19.40
2022-10-15T13:16:07.009Z,19.50
2022-10-15T13:18:34.736Z,19.60
2022-10-15T13:21:03.093Z,19.80
2022-10-15T13:23:33.274Z,20.00
2022-10-15T13:26:20.646Z,20.20
2022-10-15T13:28:52.987Z,20.40
2022-10-15T13:31:29.077Z,20.70
2022-10-15T13:34:31.798Z,20.90
2022-10-15T13:37:03.259Z,21.10
2022-10-15T13:39:36.855Z,21.30
2022-10-15T13:42:15.535Z,21.50
2022-10-15T13:44:44.648Z,21.60
2022-10-15T13:47:26.192Z,21.80
2022-10-15T13:50:19.397Z,22.00
2022-10-15T13:53:00.551Z,22.10
2022-10-15T13:55:33.457Z,22.20
2022-10-15T13:58:15.189Z,22.30
2022-10-15T14:00:43.499Z,22.30
2022-10-15T14:03:14.531Z,22.50
2022-10-15T14:05:43.776Z,22.60
2022-10-15T14:08:21.818Z,22.60
2022-10-15T14:10:51.178Z,22.50
2022-10-15T14:13:18.876Z,22.50
2022-10-15T14:16:13.470Z,22.50
2022-10-15T14:18:49.238Z,22.60
2022-10-15T14:21:28.609Z,22.70
2022-10-15T14:24:12.976Z,22.80
2022-10-15T14:26:41.070Z,22.90
2022-10-15T14:29:21.387Z,23.00
2022-10-15T14:31:49.629Z,23.10
2022-10-15T14:34:35.552Z,23.20
2022-10-15T14:37:24.173Z,23.30
2022-10-15T14:40:04.758Z,23.40
2022-10-15T14:42:33.383Z,23.50
2022-10-15T14:45:11.364Z,23.50
2022-10-15T14:47:39.233Z,23.50
2022-10-15T14:50:07.469Z,23.40
2022-10-15T14:52:36.994Z,23.30
2022-10-15T14:55:14.415Z,23.20
2022-10-15T14:57:44.214Z,23.00
2022-10-15T15:00:22.789Z,22.80
2022-10-15T15:02:50.606Z,22.70
2022-10-15T15:05:21.774Z,22.50
2022-10-15T15:07:49.970Z,22.20
2022-10-15T15:10:18.280Z,22.00
2022-10-15T15:12:53.049Z,21.80
2022-10-15T15:15:22.516Z,21.70
2022-10-15T15:17:50.520Z,21.60
2022-10-15T15:20:24.191Z,21.40
2022-10-15T15:22:54.295Z,21.20
2022-10-15T15:25:30.233Z,21.10
2022-10-15T15:27:58.140Z,20.90
2022-10-15T15:30:28.082Z,20.70
2022-10-15T15:32:55.698Z,20.60
2022-10-15T15:35:28.960Z,20.40
2022-10-15T15:37:56.547Z,20.20
2022-10-15T15:40:24.253Z,20.00
2022-10-15T15:42:51.753Z,19.90
2022-10-15T15:45:24.280Z,19.70
2022-10-15T15:47:52.082Z,19.60
2022-10-15T15:50:21.286Z,19.50
2022-10-15T15:52:48.768Z,19.30
2022-10-15T15:55:16.562Z,19.30
2022-10-15T15:57:45.318Z,19.10
2022-10-15T16:00:14.244Z,19.00
2022-10-15T16:02:42.081Z,18.80
2022-10-15T16:05:13.039Z,18.70
2022-10-15T16:07:40.594Z,18.50
2022-10-15T16:10:11.761Z,18.30
2022-10-15T16:12:43.940Z,18.20
2022-10-15T16:15:14.601Z,18.00
2022-10-15T16:17:43.767Z,17.90
2022-10-15T16:20:11.735Z,17.80
2022-10-15T16:22:39.620Z,17.70
2022-10-15T16:25:07.702Z,17.60
2022-10-15T16:27:35.389Z,17.50
2022-10-15T16:30:03.826Z,17.50
2022-10-15T16:32:31.455Z,17.40
2022-10-15T16:34:59.020Z,17.40
2022-10-15T16:37:26.743Z,17.30
2022-10-15T16:39:54.982Z,17.30
2022-10-15T16:42:22.365Z,17.20
2022-10-15T16:44:50.209Z,17.10
2022-10-15T16:47:23.810Z,17.00
2022-10-15T16:49:51.425Z,16.90
2022-10-15T16:52:18.849Z,16.80
2022-10-15T16:54:46.303Z,16.80
2022-10-15T16:57:13.734Z,16.70
2022-10-15T16:59:43.473Z,16.60
2022-10-15T17:02:12.676Z,16.60
2022-10-15T17:04:40.449Z,16.50
2022-10-15T17:07:08.277Z,16.50
2022-10-15T17:09:36.111Z,16.40
2022-10-15T17:12:04.145Z,16.40
2022-10-15T17:14:31.770Z,16.40
2022-10-15T17:16:59.415Z,16.30
2022-10-15T17:19:30.424Z,16.30
2022-10-15T17:22:01.218Z,16.20
2022-10-15T17:24:28.617Z,16.20
2022-10-15T17:26:58.086Z,16.10
2022-10-15T17:29:29.078Z,16.10
2022-10-15T17:32:01.805Z,16.00
2022-10-15T17:34:38.185Z,16.00
2022-10-15T17:37:05.649Z,16.00
2022-10-15T17:39:34.815Z,15.90
2022-10-15T17:42:02.216Z,15.90
2022-10-15T17:44:30.066Z,15.80
2022-10-15T17:46:57.944Z,15.80
2022-10-15T17:49:28.898Z,15.80
2022-10-15T17:51:56.354Z,15.80
2022-10-15T17:54:23.825Z,15.70
2022-10-15T17:56:51.335Z,15.70
2022-10-15T17:59:18.723Z,15.70
2022-10-15T18:02:01.555Z,15.70
2022-10-15T18:04:33.066Z,15.60
2022-10-15T18:07:00.695Z,15.60
2022-10-15T18:09:28.620Z,15.60
2022-10-15T18:12:00.476Z,15.60
2022-10-15T18:14:30.106Z,15.60
2022-10-15T18:16:57.712Z,15.50
2022-10-15T18:19:26.707Z,15.50
2022-10-15T18:21:55.424Z,15.60
2022-10-15T18:24:23.794Z,15.50
2022-10-15T18:26:52.013Z,15.60
2022-10-15T18:29:20.294Z,15.50
2022-10-15T18:31:47.887Z,15.50
2022-10-15T18:34:15.305Z,15.60
2022-10-15T18:36:43.788Z,15.50
2022-10-15T18:39:11.918Z,15.50
2022-10-15T18:41:40.892Z,15.50
2022-10-15T18:44:15.989Z,15.50
2022-10-15T18:46:45.401Z,15.50
2022-10-15T18:49:14.547Z,15.50
2022-10-15T18:51:42.489Z,15.40
2022-10-15T18:54:10.802Z,15.40
2022-10-15T18:56:39.028Z,15.40
2022-10-15T18:59:06.535Z,15.30
2022-10-15T19:01:36.869Z,15.30
2022-10-15T19:04:16.945Z,15.30
2022-10-15T19:06:50.983Z,15.20
2022-10-15T19:09:24.806Z,15.20
2022-10-15T19:11:55.279Z,15.20
2022-10-15T19:14:26.129Z,15.10
2022-10-15T19:16:56.413Z,15.10
2022-10-15T19:19:25.869Z,15.10
2022-10-15T19:21:57.655Z,15.10
2022-10-15T19:24:25.385Z,15.00
2022-10-15T19:26:53.228Z,15.00
2022-10-15T19:29:20.877Z,15.00
2022-10-15T19:31:51.603Z,15.00
2022-10-15T19:34:19.083Z,14.90
2022-10-15T19:36:48.256Z,14.90
2022-10-15T19:39:19.075Z,14.90
2022-10-15T19:41:47.134Z,14.80
2022-10-15T19:44:17.069Z,14.80
2022-10-15T19:46:46.650Z,14.80
2022-10-15T19:49:14.560Z,14.80
2022-10-15T19:51:42.177Z,14.70
2022-10-15T19:54:10.196Z,14.70
2022-10-15T19:56:37.726Z,14.70
2022-10-15T19:59:06.260Z,14.70
2022-10-15T20:01:34.113Z,14.70
2022-10-15T20:04:06.170Z,14.70
2022-10-15T20:06:36.213Z,14.60
2022-10-15T20:09:04.514Z,14.60
2022-10-15T20:11:32.059Z,14.60
2022-10-15T20:14:00.707Z,14.60
2022-10-15T20:16:32.373Z,14.50
2022-10-15T20:19:05.237Z,14.50
2022-10-15T20:21:32.981Z,14.50
2022-10-15T20:24:04.391Z,14.50
2022-10-15T20:26:33.061Z,14.50
2022-10-15T20:29:01.185Z,14.50
2022-10-15T20:31:32.441Z,14.50
2022-10-15T20:34:00.905Z,14.50
2022-10-15T20:36:28.775Z,14.50
2022-10-15T20:38:58.084Z,14.50
2022-10-15T20:41:25.602Z,14.50
2022-10-15T20:43:55.701Z,14.50
2022-10-15T20:46:35.520Z,14.50
2022-10-15T20:49:19.260Z,14.50
2022-10-15T20:51:47.245Z,14.40
2022-10-15T20:54:17.819Z,14.40
2022-10-15T20:56:45.710Z,14.40
2022-10-15T20:59:13.292Z,14.50
2022-10-15T21:01:40.776Z,14.50
2022-10-15T21:04:08.489Z,14.50
2022-10-15T21:06:35.921Z,14.50
2022-10-15T21:09:03.848Z,14.50
2022-10-15T21:11:31.452Z,14.50
2022-10-15T21:14:02.085Z,14.50
2022-10-15T21:16:29.577Z,14.50
2022-10-15T21:18:57.052Z,14.50
2022-10-15T21:21:24.405Z,14.50
2022-10-15T21:23:51.941Z,14.60
2022-10-15T21:26:19.853Z,14.50
2022-10-15T21:28:47.521Z,14.60
2022-10-15T21:31:17.134Z,14.50
2022-10-15T21:33:45.000Z,14.60
2022-10-15T21:36:22.885Z,14.60
2022-10-15T21:38:57.940Z,14.60
2022-10-15T21:41:27.610Z,14.50
2022-10-15T21:43:55.004Z,14.60
2022-10-15T21:46:22.752Z,14.60
2022-10-15T21:48:51.067Z,14.50
2022-10-15T21:51:24.438Z,14.60
2022-10-15T21:53:52.527Z,14.60
2022-10-15T21:56:20.394Z,14.60
2022-10-15T21:58:48.094Z,14.60
2022-10-15T22:01:28.115Z,14.60
2022-10-15T22:04:00.663Z,14.50
2022-10-15T22:06:28.566Z,14.60
2022-10-15T22:08:56.264Z,14.60
2022-10-15T22:14:00.772Z,14.60
2022-10-15T22:16:28.873Z,14.60
2022-10-15T22:18:58.215Z,14.60
2022-10-15T22:21:26.957Z,14.60
2022-10-15T22:23:57.277Z,14.60
2022-10-15T22:26:28.167Z,14.60
2022-10-15T22:28:57.463Z,14.70
2022-10-15T22:31:26.551Z,14.70
2022-10-15T22:33:54.885Z,14.70
2022-10-15T22:36:25.269Z,14.60
2022-10-15T22:39:05.169Z,14.70
2022-10-15T22:41:35.876Z,14.70
2022-10-15T22:44:11.981Z,14.70
2022-10-15T22:46:40.340Z,14.70
2022-10-15T22:49:10.077Z,14.70
2022-10-15T22:51:37.555Z,14.60
2022-10-15T22:54:08.228Z,14.60
2022-10-15T22:56:36.927Z,14.60
2022-10-15T22:59:04.883Z,14.60
2022-10-15T23:01:34.115Z,14.60
2022-10-15T23:04:05.424Z,14.60
2022-10-15T23:06:36.005Z,14.60
2022-10-15T23:09:05.324Z,14.60
2022-10-15T23:11:33.925Z,14.60
2022-10-15T23:14:06.936Z,14.60
2022-10-15T23:16:36.978Z,14.60
2022-10-15T23:19:22.272Z,14.50
2022-10-15T23:21:52.574Z,14.50
2022-10-15T23:24:22.687Z,14.50
2022-10-15T23:26:50.613Z,14.60
2022-10-15T23:29:20.606Z,14.60
2022-10-15T23:31:49.423Z,14.60
2022-10-15T23:34:23.503Z,14.50
2022-10-15T23:36:51.485Z,14.60
2022-10-15T23:39:21.683Z,14.60
2022-10-15T23:41:49.721Z,14.60
2022-10-15T23:44:17.431Z,14.60
2022-10-15T23:46:45.238Z,14.60
2022-10-15T23:49:13.477Z,14.60
2022-10-15T23:51:41.024Z,14.60
2022-10-15T23:54:20.525Z,14.60
2022-10-15T23:56:50.878Z,14.60
2022-10-15T23:59:18.657Z,14.50
